Time;durP1;ratioP1;P1;durP2;ratioP2;P2;SDS_P1;SDS_P2;PMS_P1;PMS_P2;Temp;Humidity;BMP_temperature;BMP_pressure;BME280_temperature;BME280_humidity;BME280_pressure;Samples;Min_cycle;Max_cycle;Signal;HPM_P1;HPM_P2
2021/07/16 00:00:16;;;;;;;21.62;15.78;;;;;;;22.26;88.93;100422.57;1758337;81;28322;-78
2021/07/16 00:02:48;;;;;;;20.55;16.67;;;;;;;22.26;88.88;100416.55;1754204;81;25837;-78
2021/07/16 00:05:15;;;;;;;18.07;15.48;;;;;;;22.26;88.83;100416.55;1708222;81;26004;-79
2021/07/16 00:07:42;;;;;;;18.80;15.25;;;;;;;22.26;88.86;100405.63;1762792;81;26453;-78
2021/07/16 00:10:14;;;;;;;18.73;15.23;;;;;;;22.25;88.86;100404.55;1750279;81;26394;-78
2021/07/16 00:12:41;;;;;;;17.95;15.35;;;;;;;22.23;88.84;100395.81;1725917;81;27354;-79
2021/07/16 00:15:11;;;;;;;21.45;15.32;;;;;;;22.20;88.88;100391.70;1707708;81;25956;-78
2021/07/16 00:17:39;;;;;;;19.12;15.20;;;;;;;22.20;88.94;100387.61;1706646;81;25568;-78
2021/07/16 00:20:07;;;;;;;18.75;16.37;;;;;;;22.19;88.92;100383.25;1743591;81;26464;-78
2021/07/16 00:22:35;;;;;;;17.37;14.60;;;;;;;22.19;88.99;100380.53;1720665;81;25822;-78
2021/07/16 00:25:07;;;;;;;16.62;15.00;;;;;;;22.17;88.83;100382.70;1723707;81;28085;-78
2021/07/16 00:27:34;;;;;;;17.87;15.20;;;;;;;22.16;88.83;100391.96;1707189;81;26475;-78
2021/07/16 00:30:05;;;;;;;15.70;14.00;;;;;;;22.15;88.73;100394.97;1754108;81;25879;-78
2021/07/16 00:32:32;;;;;;;19.82;16.45;;;;;;;22.11;88.66;100399.32;1716459;81;26563;-78
2021/07/16 00:34:59;;;;;;;26.35;19.35;;;;;;;22.11;88.79;100399.32;1700468;81;26866;-78
2021/07/16 00:37:26;;;;;;;34.95;24.32;;;;;;;22.11;88.92;100408.88;1699917;81;27612;-78
2021/07/16 00:39:53;;;;;;;25.57;19.85;;;;;;;22.12;89.03;100420.88;1750280;81;25838;-78
2021/07/16 00:42:20;;;;;;;20.97;17.17;;;;;;;22.12;89.09;100433.69;1728904;81;25869;-78
2021/07/16 00:44:47;;;;;;;17.37;15.38;;;;;;;22.15;89.15;100449.53;1731928;81;25951;-78
2021/07/16 00:47:14;;;;;;;16.87;15.18;;;;;;;22.12;89.12;100459.06;1691240;81;25893;-78
2021/07/16 00:49:41;;;;;;;19.37;15.05;;;;;;;22.14;89.20;100477.89;1751058;81;28146;-78
2021/07/16 00:52:08;;;;;;;22.55;16.50;;;;;;;22.10;89.30;100479.51;1737444;80;25873;-78
2021/07/16 00:54:36;;;;;;;22.60;16.32;;;;;;;22.08;89.43;100477.59;1729102;81;26522;-78
2021/07/16 00:57:05;;;;;;;21.10;16.40;;;;;;;22.07;89.49;100480.02;1722419;80;25781;-78
2021/07/16 00:59:32;;;;;;;24.52;17.12;;;;;;;22.08;89.60;100489.86;1780949;80;25809;-78
2021/07/16 01:02:00;;;;;;;21.90;16.87;;;;;;;22.09;89.72;100499.14;1724270;82;28267;-78
2021/07/16 01:04:28;;;;;;;24.43;17.05;;;;;;;22.10;89.79;100507.62;1721123;81;25833;-78
2021/07/16 01:06:55;;;;;;;27.27;17.85;;;;;;;22.11;89.81;100515.27;1717575;80;26547;-78
2021/07/16 01:09:22;;;;;;;22.50;16.73;;;;;;;22.11;89.90;100523.45;1757994;81;25805;-78
2021/07/16 01:11:49;;;;;;;23.18;17.67;;;;;;;22.08;90.08;100511.69;1740118;80;25829;-78
2021/07/16 01:14:17;;;;;;;22.22;15.63;;;;;;;22.08;90.24;100503.51;1710814;81;28344;-78
2021/07/16 01:16:44;;;;;;;24.47;16.87;;;;;;;22.07;90.49;100504.58;1733770;81;25745;-78
2021/07/16 01:19:15;;;;;;;26.15;17.30;;;;;;;22.06;90.51;100507.05;1762252;79;25829;-78
2021/07/16 01:21:43;;;;;;;22.80;16.93;;;;;;;22.05;90.74;100512.20;1736835;81;25857;-78
2021/07/16 01:28:05;;;;;;;25.10;17.50;;;;;;;21.98;90.91;100522.55;1759692;80;25810;-78
2021/07/16 01:30:34;;;;;;;27.37;18.25;;;;;;;21.93;91.32;100536.97;1714280;81;25790;-78
2021/07/16 01:33:02;;;;;;;25.40;17.82;;;;;;;21.91;91.32;100539.67;1757517;81;25834;-78
2021/07/16 01:35:30;;;;;;;21.52;15.72;;;;;;;21.89;91.34;100537.22;1747234;80;25786;-78
2021/07/16 01:37:57;;;;;;;25.62;15.23;;;;;;;21.86;91.35;100529.55;1745515;81;26507;-78
2021/07/16 01:40:26;;;;;;;14.65;11.90;;;;;;;21.84;91.30;100522.71;1684358;81;28370;-78
2021/07/16 01:42:57;;;;;;;17.50;10.13;;;;;;;21.79;91.23;100519.94;1705745;81;25613;-79
2021/07/16 01:45:27;;;;;;;;;;;;;;;21.76;91.20;100515.82;1758538;80;26471;-78
2021/07/16 01:47:58;;;;;;;16.67;9.00;;;;;;;21.72;91.21;100511.16;1716395;81;26290;-78
2021/07/16 01:50:28;;;;;;;14.73;9.20;;;;;;;21.65;90.91;100504.55;1717660;81;25852;-79
2021/07/16 01:52:56;;;;;;;11.63;8.18;;;;;;;21.63;90.69;100504.53;1710482;81;27266;-78
2021/07/16 01:55:25;;;;;;;10.98;6.72;;;;;;;21.62;90.25;100499.61;1776807;80;25793;-78
2021/07/16 01:57:56;;;;;;;13.05;6.72;;;;;;;21.60;89.90;100500.42;1712825;81;25854;-78
2021/07/16 02:00:27;;;;;;;9.73;5.50;;;;;;;21.56;89.61;100482.95;1728457;81;25863;-78
2021/07/16 02:02:58;;;;;;;9.18;5.10;;;;;;;21.55;89.03;100475.87;1720883;82;25914;-78
2021/07/16 02:05:26;;;;;;;11.83;5.42;;;;;;;21.51;88.65;100470.09;1753096;81;27476;-78
2021/07/16 02:07:59;;;;;;;6.65;5.33;;;;;;;21.47;88.53;100478.52;1688185;82;25963;-78
2021/07/16 02:10:27;;;;;;;9.65;5.10;;;;;;;21.45;88.50;100483.41;1720242;81;25870;-78
2021/07/16 02:12:55;;;;;;;10.28;5.22;;;;;;;21.42;88.44;100483.95;1725483;80;26024;-78
2021/07/16 02:15:27;;;;;;;10.63;6.08;;;;;;;21.41;88.29;100497.81;1767738;80;25720;-78
2021/07/16 02:17:54;;;;;;;10.23;5.65;;;;;;;21.41;88.22;100503.27;1711105;81;28335;-78
2021/07/16 02:20:32;;;;;;;10.75;5.20;;;;;;;21.36;88.11;100499.95;1724780;81;25952;-78
2021/07/16 02:23:02;;;;;;;7.70;5.12;;;;;;;21.38;88.14;100491.55;1692538;81;26297;-78
2021/07/16 02:25:29;;;;;;;8.70;5.10;;;;;;;21.35;87.86;100502.95;1722018;81;32535;-78
2021/07/16 02:28:06;;;;;;;7.03;4.60;;;;;;;21.31;87.82;100497.73;1745110;80;26354;-78
2021/07/16 02:30:33;;;;;;;7.30;4.30;;;;;;;21.26;87.83;100499.88;1745719;80;28150;-78
2021/07/16 02:33:01;;;;;;;5.83;4.58;;;;;;;21.26;88.07;100499.05;1706992;80;26282;-78
2021/07/16 02:35:30;;;;;;;15.45;7.05;;;;;;;21.24;88.17;100506.13;1776413;80;25817;-79
2021/07/16 02:37:59;;;;;;;13.00;6.45;;;;;;;21.26;88.21;100533.09;1721507;81;26135;-78
2021/07/16 02:40:26;;;;;;;10.55;5.05;;;;;;;21.27;88.35;100558.75;1725930;81;25780;-78
2021/07/16 02:42:53;;;;;;;9.13;5.37;;;;;;;21.29;88.49;100583.83;1718198;80;27524;-78
2021/07/16 02:45:23;;;;;;;9.25;5.15;;;;;;;21.30;88.49;100597.72;1770612;80;25732;-78
2021/07/16 02:47:51;;;;;;;5.03;4.20;;;;;;;21.29;88.50;100606.16;1734150;80;25785;-78
2021/07/16 02:50:29;;;;;;;12.58;5.37;;;;;;;21.23;88.56;100590.31;1712734;81;25795;-79
2021/07/16 02:52:56;;;;;;;13.28;7.00;;;;;;;21.14;88.76;100550.98;1766596;80;25806;-78
2021/07/16 02:55:24;;;;;;;9.33;5.75;;;;;;;21.08;89.08;100532.12;1779732;80;28237;-79
2021/07/16 02:57:52;;;;;;;7.03;4.67;;;;;;;21.04;89.32;100519.53;1723915;80;25895;-79
2021/07/16 03:00:24;;;;;;;8.93;4.62;;;;;;;20.99;89.60;100529.53;1749222;80;25838;-79
2021/07/16 03:02:51;;;;;;;7.58;4.78;;;;;;;20.95;89.61;100567.89;1736802;80;26151;-80
2021/07/16 03:05:24;;;;;;;11.15;5.25;;;;;;;20.89;89.62;100551.22;1776718;80;26328;-79
2021/07/16 03:07:52;;;;;;;9.08;5.40;;;;;;;20.82;89.84;100534.25;1749735;80;28262;-79
2021/07/16 03:10:26;;;;;;;9.38;5.53;;;;;;;20.70;90.45;100521.59;1712312;82;25913;-79
2021/07/16 03:12:56;;;;;;;8.55;5.30;;;;;;;20.63;90.49;100522.35;1700862;81;25915;-79
2021/07/16 03:15:26;;;;;;;8.45;5.47;;;;;;;20.57;90.81;100513.02;1755042;80;26432;-79
2021/07/16 03:17:54;;;;;;;9.28;5.08;;;;;;;20.50;91.02;100514.56;1719422;81;26241;-79
2021/07/16 03:20:31;;;;;;;10.08;5.05;;;;;;;20.45;91.39;100500.05;1750974;80;27533;-80
2021/07/16 03:22:59;;;;;;;9.90;6.00;;;;;;;20.40;91.71;100500.81;1711378;81;25810;-79
2021/07/16 03:25:28;;;;;;;8.45;5.33;;;;;;;20.36;92.01;100492.08;1788630;80;26555;-79
2021/07/16 03:27:56;;;;;;;7.50;5.62;;;;;;;20.32;92.61;100485.47;1740448;80;25787;-79
2021/07/16 03:30:28;;;;;;;11.15;6.03;;;;;;;20.28;92.89;100485.70;1748881;80;25903;-80
2021/07/16 03:32:56;;;;;;;8.63;6.83;;;;;;;20.24;92.96;100475.04;1724441;80;27383;-79
2021/07/16 03:35:24;;;;;;;10.45;7.50;;;;;;;20.23;93.46;100468.77;1753919;80;25913;-79
2021/07/16 03:37:52;;;;;;;12.23;8.15;;;;;;;20.25;94.34;100471.26;1688811;81;26230;-80
2021/07/16 03:40:23;;;;;;;18.80;8.68;;;;;;;20.25;94.92;100472.62;1739435;81;25731;-80
2021/07/16 03:42:51;;;;;;;12.45;8.50;;;;;;;20.25;95.35;100464.45;1739345;82;25300;-80
2021/07/16 03:45:18;;;;;;;13.93;9.93;;;;;;;20.28;95.48;100462.58;1763886;80;27575;-80
2021/07/16 03:47:48;;;;;;;15.18;9.13;;;;;;;20.31;96.42;100462.91;1751971;80;26283;-80
2021/07/16 03:50:18;;;;;;;17.07;10.68;;;;;;;20.36;96.15;100460.80;1727531;81;25791;-80
2021/07/16 03:52:45;;;;;;;15.75;9.95;;;;;;;20.40;96.64;100462.72;1707195;80;25999;-80
2021/07/16 03:55:13;;;;;;;16.17;9.75;;;;;;;20.44;96.83;100458.45;1746527;81;25762;-80
2021/07/16 03:57:47;;;;;;;15.00;10.70;;;;;;;20.49;96.96;100465.81;1689811;81;27505;-79
2021/07/16 04:00:24;;;;;;;15.05;9.58;;;;;;;20.55;97.24;100467.55;1725577;81;25772;-79
2021/07/16 04:02:50;;;;;;;15.93;10.93;;;;;;;20.60;97.68;100464.86;1744356;80;26576;-80
2021/07/16 04:05:18;;;;;;;13.93;10.40;;;;;;;20.64;97.67;100478.23;1730090;82;25895;-79
2021/07/16 04:07:45;;;;;;;15.75;11.25;;;;;;;20.64;97.87;100471.44;1710696;81;25853;-79
2021/07/16 04:10:21;;;;;;;16.12;10.82;;;;;;;20.68;97.67;100452.15;1713729;81;27176;-79
2021/07/16 04:12:58;;;;;;;13.22;9.73;;;;;;;20.69;97.64;100434.75;1693772;81;26497;-80
2021/07/16 04:15:26;;;;;;;17.05;10.53;;;;;;;20.71;97.61;100442.12;1772840;80;25771;-80
2021/07/16 04:17:55;;;;;;;14.90;9.93;;;;;;;20.71;97.47;100443.48;1706262;80;26049;-80
2021/07/16 04:20:24;;;;;;;14.45;9.53;;;;;;;20.73;97.39;100426.35;1729193;81;25576;-79
2021/07/16 04:22:51;;;;;;;13.62;9.60;;;;;;;20.73;97.41;100409.48;1734042;80;27411;-79
2021/07/16 04:25:19;;;;;;;17.17;9.65;;;;;;;20.71;97.33;100404.02;1775574;80;25721;-80
2021/07/16 04:27:49;;;;;;;11.40;8.03;;;;;;;20.73;96.86;100405.94;1713474;82;25853;-79
2021/07/16 04:30:20;;;;;;;13.30;8.55;;;;;;;20.74;97.21;100387.98;1732914;81;26186;-79
2021/07/16 04:32:49;;;;;;;15.45;9.38;;;;;;;20.75;96.43;100386.91;1723206;80;25662;-79
2021/07/16 04:35:16;;;;;;;9.55;8.43;;;;;;;20.76;96.20;100385.81;1748062;81;27449;-79
2021/07/16 04:37:44;;;;;;;11.93;8.48;;;;;;;20.78;96.44;100392.38;1691028;81;26138;-79
2021/07/16 04:40:15;;;;;;;18.80;9.43;;;;;;;20.79;96.06;100400.81;1757614;80;25925;-79
2021/07/16 04:42:45;;;;;;;13.05;9.10;;;;;;;20.81;95.85;100393.77;1717797;80;25422;-79
2021/07/16 04:45:15;;;;;;;13.68;9.55;;;;;;;20.82;95.88;100394.04;1773575;80;26003;-79
2021/07/16 04:47:42;;;;;;;15.20;10.32;;;;;;;20.83;95.59;100391.05;1768689;80;27546;-78
2021/07/16 04:50:11;;;;;;;14.40;10.48;;;;;;;20.85;95.30;100371.19;1745948;80;25902;-79
2021/07/16 04:52:48;;;;;;;15.23;9.38;;;;;;;20.88;95.01;100376.13;1724591;81;25922;-80
2021/07/16 04:55:17;;;;;;;12.33;9.65;;;;;;;20.92;94.71;100365.00;1755224;81;25778;-79
2021/07/16 04:57:44;;;;;;;19.65;8.80;;;;;;;20.95;94.60;100345.96;1691518;81;25757;-80
2021/07/16 05:00:13;;;;;;;13.90;8.73;;;;;;;20.96;94.35;100338.05;1706500;81;27455;-77
2021/07/16 05:02:40;;;;;;;12.30;9.50;;;;;;;20.94;94.63;100319.80;1720693;80;25912;-79
2021/07/16 05:05:09;;;;;;;12.82;8.83;;;;;;;20.94;94.87;100318.44;1779660;80;25784;-79
2021/07/16 05:07:36;;;;;;;12.63;8.90;;;;;;;20.93;94.69;100335.34;1688344;82;25790;-79
2021/07/16 05:10:06;;;;;;;15.83;9.35;;;;;;;20.96;94.74;100339.41;1754578;80;25890;-79
2021/07/16 05:12:39;;;;;;;15.93;9.25;;;;;;;20.97;94.79;100344.63;1715427;82;27573;-79
2021/07/16 05:15:05;;;;;;;11.48;8.90;;;;;;;21.00;94.84;100348.73;1751673;81;25734;-78
2021/07/16 05:17:32;;;;;;;12.78;9.43;;;;;;;21.04;94.96;100336.27;1778017;80;25838;-78
2021/07/16 05:20:00;;;;;;;15.72;9.93;;;;;;;21.08;94.68;100348.27;1745036;80;25959;-79
2021/07/16 05:22:27;;;;;;;14.95;10.18;;;;;;;21.11;94.71;100339.56;1687775;81;25389;-79
2021/07/16 05:24:54;;;;;;;13.62;10.03;;;;;;;21.15;94.13;100352.97;1741531;81;28362;-79
2021/07/16 05:27:21;;;;;;;15.45;10.98;;;;;;;21.19;94.19;100366.34;1766196;80;25828;-79
2021/07/16 05:29:48;;;;;;;15.68;9.33;;;;;;;21.23;93.96;100371.54;1716213;81;25809;-79
2021/07/16 05:32:15;;;;;;;12.45;9.45;;;;;;;21.26;93.60;100374.55;1725714;80;26263;-79
2021/07/16 05:34:42;;;;;;;14.83;9.40;;;;;;;21.28;93.19;100377.83;1759412;80;26226;-80
2021/07/16 05:37:09;;;;;;;13.88;8.28;;;;;;;21.30;92.72;100394.73;1754374;81;28152;-80
2021/07/16 05:39:36;;;;;;;12.33;10.30;;;;;;;21.34;92.55;100444.89;1735707;80;25748;-79
2021/07/16 05:42:04;;;;;;;12.60;8.88;;;;;;;21.39;92.93;100491.80;1721267;80;25860;-79
2021/07/16 05:44:33;;;;;;;14.70;9.00;;;;;;;21.42;93.19;100516.66;1766876;80;25598;-80
2021/07/16 05:47:00;;;;;;;15.35;8.73;;;;;;;21.44;93.49;100524.03;1772013;80;25831;-79
2021/07/16 05:49:27;;;;;;;11.73;8.08;;;;;;;21.42;93.33;100516.66;1722141;80;27436;-79
2021/07/16 05:51:54;;;;;;;10.20;7.75;;;;;;;21.40;93.56;100518.82;1715186;80;26372;-79
2021/07/16 05:54:21;;;;;;;15.40;8.20;;;;;;;21.37;93.02;100539.76;1771581;80;25745;-79
2021/07/16 05:56:48;;;;;;;17.55;8.35;;;;;;;21.35;92.91;100539.20;1740262;80;26264;-79
2021/07/16 05:59:15;;;;;;;15.03;9.03;;;;;;;21.36;91.78;100549.00;1726378;80;25755;-80
2021/07/16 06:01:42;;;;;;;14.83;9.83;;;;;;;21.46;91.69;100556.46;1724997;80;28244;-80
2021/07/16 06:04:09;;;;;;;14.30;8.58;;;;;;;21.46;91.71;100572.81;1750774;81;26091;-78
2021/07/16 06:06:38;;;;;;;15.85;8.20;;;;;;;21.39;91.56;100566.74;1749669;81;26457;-79
2021/07/16 06:09:06;;;;;;;18.40;8.48;;;;;;;21.33;91.21;100551.43;1746482;80;26504;-79
2021/07/16 06:11:33;;;;;;;15.83;9.53;;;;;;;21.23;91.81;100551.34;1730446;80;25812;-78
2021/07/16 06:14:00;;;;;;;16.60;9.23;;;;;;;21.11;92.27;100565.64;1754009;81;27615;-79
2021/07/16 06:16:28;;;;;;;16.30;9.95;;;;;;;21.05;92.59;100576.20;1740798;81;26542;-78
2021/07/16 06:18:55;;;;;;;27.07;14.00;;;;;;;21.02;93.00;100562.52;1720288;81;25897;-78
2021/07/16 06:21:22;;;;;;;17.55;10.15;;;;;;;20.99;93.35;100560.32;1743265;80;25734;-78
2021/07/16 06:23:49;;;;;;;11.80;8.60;;;;;;;20.99;94.08;100576.66;1734190;80;25906;-79
2021/07/16 06:26:18;;;;;;;18.50;8.03;;;;;;;20.97;93.51;100554.31;1734228;80;26933;-79
2021/07/16 06:28:45;;;;;;;15.35;8.43;;;;;;;20.97;92.93;100553.48;1751898;80;25913;-79
2021/07/16 06:31:11;;;;;;;15.18;8.53;;;;;;;20.98;92.88;100560.59;1739866;81;26181;-79
2021/07/16 06:33:39;;;;;;;16.67;8.73;;;;;;;20.99;92.63;100549.95;1748770;81;25888;-80
2021/07/16 06:36:06;;;;;;;17.35;9.40;;;;;;;21.00;92.73;100560.59;1762169;80;26502;-79
2021/07/16 06:38:33;;;;;;;15.23;9.55;;;;;;;21.02;92.87;100582.14;1711939;80;27177;-78
2021/07/16 06:41:01;;;;;;;16.97;8.60;;;;;;;21.04;92.65;100614.06;1722746;81;25922;-78
2021/07/16 06:43:29;;;;;;;12.25;7.40;;;;;;;20.92;93.01;100619.59;1771490;80;25885;-78
2021/07/16 06:45:56;;;;;;;12.73;7.42;;;;;;;20.80;93.30;100579.44;1745459;81;26257;-78
2021/07/16 06:48:23;;;;;;;18.60;7.05;;;;;;;20.64;92.73;100534.86;1691198;81;26545;-78
2021/07/16 06:50:50;;;;;;;9.08;4.12;;;;;;;20.48;92.53;100531.69;1712004;81;27453;-78
2021/07/16 06:53:17;;;;;;;8.03;3.83;;;;;;;20.27;89.87;100542.02;1739496;81;26076;-77
2021/07/16 06:55:44;;;;;;;7.87;4.10;;;;;;;20.11;89.94;100555.07;1746356;81;25878;-78
2021/07/16 06:58:11;;;;;;;11.85;4.70;;;;;;;19.98;90.42;100579.89;1667842;82;26498;-79
2021/07/16 07:00:38;;;;;;;14.55;5.17;;;;;;;19.92;90.83;100580.89;1716702;80;25347;-78
2021/07/16 07:03:05;;;;;;;7.00;4.47;;;;;;;19.93;91.42;100565.67;1750445;81;27548;-79
2021/07/16 07:05:34;;;;;;;9.25;4.58;;;;;;;19.91;91.14;100581.41;1753307;81;25857;-78
2021/07/16 07:08:01;;;;;;;6.72;4.17;;;;;;;19.85;91.16;100574.78;1690067;81;25862;-78
2021/07/16 07:10:28;;;;;;;6.67;4.00;;;;;;;19.80;91.12;100554.34;1708795;82;25825;-78
2021/07/16 07:12:55;;;;;;;9.85;4.15;;;;;;;19.76;91.34;100543.12;1749041;80;25803;-78
2021/07/16 07:15:22;;;;;;;7.42;4.35;;;;;;;19.78;91.51;100516.51;1751118;81;27625;-78
2021/07/16 07:17:49;;;;;;;9.53;4.67;;;;;;;19.79;91.49;100507.30;1699152;81;26466;-78
2021/07/16 07:20:16;;;;;;;8.48;3.55;;;;;;;19.76;91.42;100486.59;1722134;81;25810;-79
2021/07/16 07:22:43;;;;;;;6.70;3.92;;;;;;;19.72;91.57;100473.20;1728795;81;25874;-79
2021/07/16 07:25:11;;;;;;;7.05;4.17;;;;;;;19.64;91.69;100473.09;1751745;81;25835;-78
2021/07/16 07:27:38;;;;;;;9.48;4.70;;;;;;;19.57;92.02;100472.44;1666829;81;27374;-78
2021/07/16 07:30:07;;;;;;;6.25;4.80;;;;;;;19.54;92.42;100477.02;1709769;82;25833;-78
2021/07/16 07:32:34;;;;;;;9.83;5.35;;;;;;;19.53;92.75;100485.41;1752423;81;25794;-78
2021/07/16 07:35:01;;;;;;;11.38;5.87;;;;;;;19.53;93.35;100490.31;1755058;81;25807;-79
2021/07/16 07:37:28;;;;;;;10.23;6.62;;;;;;;19.57;93.78;100493.34;1750172;80;26208;-78
2021/07/16 07:39:55;;;;;;;12.18;6.97;;;;;;;19.61;94.54;100489.08;1766365;80;27646;-77
2021/07/16 07:42:25;;;;;;;9.55;6.92;;;;;;;19.63;94.79;100480.14;1725261;81;26090;-78
2021/07/16 07:44:51;;;;;;;9.60;6.67;;;;;;;19.66;95.63;100476.91;1755208;80;25859;-78
2021/07/16 07:47:18;;;;;;;18.12;8.20;;;;;;;19.67;96.52;100475.86;1737934;80;26518;-78
2021/07/16 07:49:46;;;;;;;9.05;6.95;;;;;;;19.66;96.32;100482.34;1724140;80;25763;-78
2021/07/16 07:52:13;;;;;;;15.78;8.60;;;;;;;19.68;96.29;100494.63;1757636;81;28281;-77
2021/07/16 07:54:40;;;;;;;14.00;7.78;;;;;;;19.71;96.43;100497.38;1749082;80;25809;-77
2021/07/16 07:57:07;;;;;;;11.88;8.33;;;;;;;19.73;96.35;100482.48;1748332;80;26441;-77
2021/07/16 07:59:34;;;;;;;9.50;6.97;;;;;;;19.76;96.42;100478.45;1730030;81;26633;-78
2021/07/16 08:02:01;;;;;;;13.50;6.83;;;;;;;19.79;96.27;100486.08;1757907;80;26576;-77
2021/07/16 08:04:28;;;;;;;14.25;6.78;;;;;;;19.80;96.20;100483.66;1752142;80;27620;-78
2021/07/16 08:06:55;;;;;;;12.47;7.47;;;;;;;19.80;96.21;100501.33;1694973;80;25849;-78
2021/07/16 08:09:23;;;;;;;9.55;6.67;;;;;;;19.81;96.37;100517.91;1705080;81;25866;-78
2021/07/16 08:11:50;;;;;;;8.75;6.35;;;;;;;19.80;96.33;100522.52;1726954;80;25828;-78
2021/07/16 08:14:17;;;;;;;11.53;7.58;;;;;;;19.80;96.45;100533.39;1744300;81;25958;-78
2021/07/16 08:16:46;;;;;;;12.37;8.33;;;;;;;19.83;96.42;100541.59;1697414;81;28069;-78
2021/07/16 08:19:17;;;;;;;13.93;8.20;;;;;;;19.89;96.52;100553.66;1736348;81;26593;-78
2021/07/16 08:21:45;;;;;;;;;;;;;;;19.93;96.57;100578.47;1777705;80;25352;-78
2021/07/16 08:24:13;;;;;;;13.13;7.62;;;;;;;19.97;96.77;100595.38;1714123;81;26062;-78
2021/07/16 08:26:41;;;;;;;19.82;8.03;;;;;;;20.00;96.91;100596.78;1738656;80;26148;-78
2021/07/16 08:29:09;;;;;;;17.77;8.50;;;;;;;20.04;96.59;100600.64;1714392;81;27467;-78
2021/07/16 08:31:38;;;;;;;12.28;7.85;;;;;;;20.09;96.56;100599.91;1780168;80;26408;-78
2021/07/16 08:34:06;;;;;;;9.18;6.97;;;;;;;20.09;96.29;100606.70;1718558;81;25847;-78
2021/07/16 08:36:34;;;;;;;8.45;7.47;;;;;;;20.10;96.18;100604.28;1729749;81;26169;-78
2021/07/16 08:39:03;;;;;;;10.75;7.10;;;;;;;20.10;96.05;100599.67;1705683;80;25807;-78
2021/07/16 08:41:30;;;;;;;10.93;7.30;;;;;;;20.10;96.01;100605.11;1770951;80;27373;-78
2021/07/16 08:43:58;;;;;;;10.93;7.30;;;;;;;20.08;95.96;100600.98;1776351;80;25889;-78
2021/07/16 08:46:25;;;;;;;10.25;6.62;;;;;;;20.04;96.03;100602.00;1742744;82;25779;-78
2021/07/16 08:48:52;;;;;;;8.98;6.60;;;;;;;20.00;96.07;100593.53;1719442;81;25804;-78
2021/07/16 08:51:22;;;;;;;13.13;7.08;;;;;;;19.95;95.94;100589.36;1702615;80;25931;-78
2021/07/16 08:53:53;;;;;;;7.25;5.60;;;;;;;19.91;95.88;100596.37;1756056;80;27580;-78
2021/07/16 08:56:22;;;;;;;6.65;5.22;;;;;;;19.90;95.97;100604.78;1758849;80;25821;-78
2021/07/16 08:58:49;;;;;;;8.25;5.42;;;;;;;19.86;96.02;100601.74;1716949;81;25883;-78
2021/07/16 09:01:16;;;;;;;7.50;5.12;;;;;;;19.85;96.15;100610.13;1708056;81;26559;-78
2021/07/16 09:04:04;;;;;;;10.15;5.60;;;;;;;19.84;96.33;100612.57;1776202;80;25730;-78
2021/07/16 09:06:50;;;;;;;8.83;5.53;;;;;;;19.82;96.49;100616.87;1772563;80;27442;-78
2021/07/16 09:09:31;;;;;;;6.97;4.92;;;;;;;19.80;96.75;100621.73;1721339;81;25926;-78
2021/07/16 09:11:59;;;;;;;10.68;5.12;;;;;;;19.78;96.99;100624.44;1738926;80;26616;-78
2021/07/16 09:14:31;;;;;;;9.28;5.83;;;;;;;19.75;97.28;100618.12;1747057;81;26532;-78
2021/07/16 09:17:10;;;;;;;8.15;5.17;;;;;;;19.74;97.42;100625.44;1754747;81;25823;-78
2021/07/16 09:19:54;;;;;;;4.97;4.03;;;;;;;19.71;97.67;100619.16;1721530;80;28234;-78
2021/07/16 09:22:25;;;;;;;8.65;4.42;;;;;;;19.69;97.85;100598.20;1691463;81;25976;-78
2021/07/16 09:24:59;;;;;;;6.83;3.55;;;;;;;19.67;98.04;100598.15;1744535;81;25873;-78
2021/07/16 09:27:36;;;;;;;4.67;3.37;;;;;;;19.65;98.19;100590.78;1769759;80;26197;-78
2021/07/16 09:30:27;;;;;;;3.65;2.65;;;;;;;19.60;98.14;100579.28;1714213;82;25835;-78
2021/07/16 09:33:05;;;;;;;4.65;3.15;;;;;;;19.54;98.07;100561.78;1678907;81;28298;-78
2021/07/16 09:35:38;;;;;;;7.20;3.33;;;;;;;19.53;97.99;100557.41;1753451;81;25965;-78
2021/07/16 09:38:14;;;;;;;4.05;3.33;;;;;;;19.53;97.99;100557.41;1742529;81;25275;-78
2021/07/16 09:40:52;;;;;;;5.37;3.22;;;;;;;19.52;98.17;100547.62;1740806;81;25833;-77
2021/07/16 09:43:23;;;;;;;5.42;3.30;;;;;;;19.51;98.17;100554.94;1712024;81;25866;-78
2021/07/16 09:46:04;;;;;;;4.90;3.87;;;;;;;19.51;97.90;100557.66;1742879;81;27517;-78
2021/07/16 09:48:38;;;;;;;6.65;3.60;;;;;;;19.53;97.85;100565.02;1741623;81;25965;-78
2021/07/16 09:51:27;;;;;;;6.08;3.37;;;;;;;19.54;97.78;100570.77;1714009;80;25784;-78
2021/07/16 09:54:03;;;;;;;8.80;4.00;;;;;;;19.60;97.91;100586.61;1725338;80;26112;-78
2021/07/16 09:56:36;;;;;;;7.17;4.00;;;;;;;19.69;98.23;100606.87;1742896;81;25779;-78
2021/07/16 09:59:19;;;;;;;7.83;4.03;;;;;;;19.78;98.18;100607.56;1759720;80;27621;-78
2021/07/16 10:01:48;;;;;;;5.05;4.12;;;;;;;19.85;97.89;100605.52;1761930;80;25881;-78
2021/07/16 10:04:17;;;;;;;10.48;4.62;;;;;;;19.92;97.92;100602.11;1695964;80;25932;-78
2021/07/16 10:06:50;;;;;;;5.22;3.70;;;;;;;20.00;97.73;100598.97;1743590;80;26528;-77
2021/07/16 10:09:19;;;;;;;7.53;4.15;;;;;;;20.04;97.61;100584.89;1763068;80;25801;-78
2021/07/16 10:11:55;;;;;;;7.75;4.28;;;;;;;20.06;97.17;100582.73;1693463;81;27492;-78
2021/07/16 10:14:22;;;;;;;6.65;3.77;;;;;;;20.13;97.43;100580.12;1712326;80;25882;-78
2021/07/16 10:16:52;;;;;;;5.22;4.20;;;;;;;20.23;97.21;100577.57;1765215;80;25836;-78
2021/07/16 10:19:21;;;;;;;5.03;3.67;;;;;;;20.33;97.22;100581.81;1742208;80;26630;-78
2021/07/16 10:21:49;;;;;;;6.30;3.83;;;;;;;20.44;96.77;100581.42;1734868;80;26398;-78
2021/07/16 10:24:26;;;;;;;4.40;3.22;;;;;;;20.54;96.99;100584.27;1693073;80;27370;-78
2021/07/16 10:26:53;;;;;;;4.22;3.33;;;;;;;20.64;96.64;100588.47;1759601;80;25942;-78
2021/07/16 10:42:52;;;;;;;4.80;4.17;;;;;;;22.24;94.55;100619.28;1817211;77;25592;-77
2021/07/16 10:45:36;;;;;;;6.33;4.08;;;;;;;22.23;94.57;100620.39;1760113;80;25769;-77
2021/07/16 10:48:21;;;;;;;7.03;4.08;;;;;;;22.23;93.63;100614.10;1742119;81;27445;-77
2021/07/16 10:50:51;;;;;;;11.35;4.67;;;;;;;22.22;94.02;100615.17;1696964;82;26440;-78
2021/07/16 10:53:32;;;;;;;6.33;3.80;;;;;;;22.24;93.44;100628.01;1681661;81;25878;-78
2021/07/16 10:56:05;;;;;;;4.47;4.08;;;;;;;22.29;93.66;100625.33;1730917;81;25947;-78
2021/07/16 10:58:42;;;;;;;5.10;4.05;;;;;;;22.35;93.19;100637.12;1733952;81;25798;-78
2021/07/16 11:01:10;;;;;;;4.10;3.60;;;;;;;22.44;93.49;100631.42;1704950;81;27488;-78
2021/07/16 11:03:47;;;;;;;6.35;3.77;;;;;;;22.55;92.85;100627.67;1682187;83;25968;-77
2021/07/16 11:06:16;;;;;;;7.28;3.55;;;;;;;22.60;92.09;100625.01;1734993;82;26514;-77
2021/07/16 11:08:48;;;;;;;5.75;3.72;;;;;;;22.60;91.35;100628.57;1738459;82;25767;-78
2021/07/16 11:11:23;;;;;;;6.28;4.10;;;;;;;22.65;91.67;100616.29;1715335;81;26074;-78
2021/07/16 11:13:56;;;;;;;4.03;3.60;;;;;;;22.66;90.80;100612.48;1683420;81;28190;-78
2021/07/16 11:16:29;;;;;;;7.62;3.95;;;;;;;22.58;90.16;100614.30;1730732;81;25801;-79
2021/07/16 11:19:13;;;;;;;5.35;3.50;;;;;;;22.60;90.81;100623.64;1753613;80;25725;-78
2021/07/16 11:21:50;;;;;;;7.40;4.08;;;;;;;22.59;89.56;100625.55;1746726;80;25924;-78
2021/07/16 11:24:22;;;;;;;4.47;4.05;;;;;;;22.58;90.96;100625.79;1695047;80;26449;-78
2021/07/16 11:26:58;;;;;;;5.90;3.95;;;;;;;22.60;90.85;100625.84;1752391;80;27469;-78
2021/07/16 11:29:29;;;;;;;5.20;4.05;;;;;;;22.64;90.50;100630.22;1749361;80;25785;-78
2021/07/16 11:32:12;;;;;;;6.65;4.33;;;;;;;22.73;90.89;100632.73;1709975;82;25970;-78
2021/07/16 11:34:53;;;;;;;4.95;4.50;;;;;;;22.82;91.25;100640.13;1704220;82;26229;-78
2021/07/16 11:37:34;;;;;;;3.65;3.27;;;;;;;23.02;91.54;100647.59;1733166;82;25861;-78
2021/07/16 11:40:21;;;;;;;6.53;3.62;;;;;;;23.11;90.96;100650.10;1733545;81;27529;-78
2021/07/16 11:42:52;;;;;;;5.08;4.15;;;;;;;23.17;88.95;100646.83;1703598;81;25895;-78
2021/07/16 11:45:27;;;;;;;4.17;3.77;;;;;;;23.29;89.17;100637.87;1698754;81;25940;-77
2021/07/16 11:47:56;;;;;;;4.08;3.58;;;;;;;23.32;88.27;100634.04;1762335;80;25893;-78